Check out our new PWSWeather beta!
PWSweather.com
Personal Weather Stations
Station Observations
SEVANL01
SevillaES 41004

SevillaES 41004

Lat: 37.383633, Lon: -5.985787

Elevation: 19.685

Station Type: Davis Vantage Pro2

www.tiempoensevilla.es

High Low Average
Temperature 58.9°F14.9°C 51.6°F10.9°C 55.6°F13.1°C
Dew Point 57.3°F14.1°C 49.6°F9.8°C 53.9°F12.2°C
Winds 3.9 mph 6.3 kmh Calm Calm 1.0 mph S1.6 kmh S
Wind Gusts 13.0 mph20.9 kmh -- 3.0 mph4.8 kmh
Humidity 95% 93% 94%
Pressure 29.84 in1010.5 mb 29.73 in1006.8 mb -
Precipitation 1.06 in26.9 mm - -
Hour Temp Dew Point Humidity Winds Wind Gusts Pressure Precip Precip Rate Daily Precip Total
12:00 AM 52.1°F11.2°C 50.1°F10.1°C 93% Calm Calm 2.0 mph3.2 kmh 29.84 in1010.5 mb 0.02 in0.5 mm 0.00 in0.0 mm 0.02 in0.5 mm
12:20 AM 52.4°F11.3°C 50.4°F10.2°C 93% Calm Calm 2.0 mph3.2 kmh 29.84 in1010.5 mb 0.01 in0.3 mm 0.00 in0.0 mm 0.02 in0.5 mm
12:40 AM 52.5°F11.4°C 50.5°F10.3°C 93% 1.0 mph N1.6 kmh N 2.0 mph3.2 kmh 29.83 in1010.2 mb 0.01 in0.3 mm 0.00 in0.0 mm 0.02 in0.5 mm
01:00 AM 52.6°F11.4°C 50.6°F10.3°C 93% Calm Calm -- 29.83 in1010.2 mb 0.00 in0.0 mm 0.00 in0.0 mm 0.02 in0.5 mm
01:20 AM 52.8°F11.6°C 50.8°F10.4°C 93% Calm Calm -- 29.83 in1010.2 mb 0.00 in0.0 mm 0.00 in0.0 mm 0.02 in0.5 mm
01:40 AM 52.6°F11.4°C 50.6°F10.3°C 93% Calm Calm 1.0 mph1.6 kmh 29.83 in1010.2 mb 0.00 in0.0 mm 0.00 in0.0 mm 0.02 in0.5 mm
02:00 AM 52.5°F11.4°C 50.5°F10.3°C 93% 0.9 mph N1.4 kmh N 2.0 mph3.2 kmh 29.82 in1009.8 mb 0.00 in0.0 mm 0.00 in0.0 mm 0.02 in0.5 mm
02:20 AM 52.5°F11.4°C 50.5°F10.3°C 93% Calm Calm 2.0 mph3.2 kmh 29.82 in1009.8 mb 0.00 in0.0 mm 0.00 in0.0 mm 0.02 in0.5 mm
02:40 AM 52.3°F11.3°C 50.3°F10.2°C 93% Calm Calm -- 29.82 in1009.8 mb 0.00 in0.0 mm 0.00 in0.0 mm 0.02 in0.5 mm
03:00 AM 52.0°F11.1°C 50.0°F10.0°C 93% 0.3 mph NNW0.5 kmh NNW 4.0 mph6.4 kmh 29.82 in1009.8 mb 0.00 in0.0 mm 0.00 in0.0 mm 0.02 in0.5 mm
03:20 AM 51.9°F11.1°C 49.9°F9.9°C 93% 1.0 mph N1.6 kmh N 3.0 mph4.8 kmh 29.81 in1009.5 mb 0.00 in0.0 mm 0.00 in0.0 mm 0.02 in0.5 mm
03:40 AM 51.7°F10.9°C 49.7°F9.8°C 93% 2.6 mph NNW4.2 kmh NNW 6.0 mph9.7 kmh 29.82 in1009.8 mb 0.00 in0.0 mm 0.00 in0.0 mm 0.02 in0.5 mm
04:00 AM 51.6°F10.9°C 49.6°F9.8°C 93% 0.3 mph NNW0.5 kmh NNW 1.0 mph1.6 kmh 29.81 in1009.5 mb 0.00 in0.0 mm 0.00 in0.0 mm 0.02 in0.5 mm
04:20 AM 51.9°F11.1°C 49.9°F9.9°C 93% Calm Calm -- 29.81 in1009.5 mb 0.00 in0.0 mm 0.00 in0.0 mm 0.02 in0.5 mm
04:40 AM 52.2°F11.2°C 50.5°F10.3°C 94% 0.8 mph E1.3 kmh E 3.0 mph4.8 kmh 29.80 in1009.1 mb 0.00 in0.0 mm 0.00 in0.0 mm 0.02 in0.5 mm
05:00 AM 52.3°F11.3°C 50.6°F10.3°C 94% 0.3 mph ESE0.5 kmh ESE 2.0 mph3.2 kmh 29.79 in1008.8 mb 0.00 in0.0 mm 0.00 in0.0 mm 0.02 in0.5 mm
05:20 AM 52.5°F11.4°C 50.8°F10.4°C 94% 0.3 mph NNE0.5 kmh NNE 3.0 mph4.8 kmh 29.79 in1008.8 mb 0.00 in0.0 mm 0.00 in0.0 mm 0.02 in0.5 mm
05:40 AM 52.6°F11.4°C 50.6°F10.3°C 93% 1.2 mph N1.9 kmh N 2.0 mph3.2 kmh 29.79 in1008.8 mb 0.00 in0.0 mm 0.00 in0.0 mm 0.02 in0.5 mm
06:00 AM 52.7°F11.5°C 50.7°F10.4°C 93% Calm Calm -- 29.79 in1008.8 mb 0.00 in0.0 mm 0.00 in0.0 mm 0.02 in0.5 mm
06:20 AM 52.6°F11.4°C 50.6°F10.3°C 93% 0.5 mph N0.8 kmh N 4.0 mph6.4 kmh 29.80 in1009.1 mb 0.00 in0.0 mm 0.00 in0.0 mm 0.02 in0.5 mm
06:40 AM 52.4°F11.3°C 50.7°F10.4°C 94% 3.0 mph NNW4.8 kmh NNW 4.0 mph6.4 kmh 29.79 in1008.8 mb 0.00 in0.0 mm 0.00 in0.0 mm 0.02 in0.5 mm
07:00 AM 52.5°F11.4°C 50.8°F10.4°C 94% 1.7 mph N2.7 kmh N 3.0 mph4.8 kmh 29.80 in1009.1 mb 0.00 in0.0 mm 0.00 in0.0 mm 0.02 in0.5 mm
07:20 AM 52.7°F11.5°C 51.0°F10.6°C 94% 1.0 mph N1.6 kmh N 3.0 mph4.8 kmh 29.79 in1008.8 mb 0.00 in0.0 mm 0.00 in0.0 mm 0.02 in0.5 mm
07:40 AM 52.7°F11.5°C 51.0°F10.6°C 94% 0.5 mph N0.8 kmh N 3.0 mph4.8 kmh 29.80 in1009.1 mb 0.00 in0.0 mm 0.00 in0.0 mm 0.02 in0.5 mm
08:00 AM 52.9°F11.6°C 51.2°F10.7°C 94% 1.0 mph NNE1.6 kmh NNE 2.0 mph3.2 kmh 29.80 in1009.1 mb 0.00 in0.0 mm 0.00 in0.0 mm 0.02 in0.5 mm
08:20 AM 53.2°F11.8°C 51.8°F11.0°C 95% 0.4 mph NNE0.6 kmh NNE 2.0 mph3.2 kmh 29.80 in1009.1 mb 0.01 in0.3 mm 0.03 in0.8 mm 0.01 in0.3 mm
08:40 AM 53.4°F11.9°C 51.7°F10.9°C 94% Calm Calm 2.0 mph3.2 kmh 29.81 in1009.5 mb 0.01 in0.3 mm 0.00 in0.0 mm 0.01 in0.3 mm
09:00 AM 53.4°F11.9°C 52.0°F11.1°C 95% Calm Calm 3.0 mph4.8 kmh 29.80 in1009.1 mb 0.02 in0.5 mm 0.02 in0.5 mm 0.02 in0.5 mm
09:20 AM 53.7°F12.1°C 52.3°F11.3°C 95% Calm Calm 1.0 mph1.6 kmh 29.80 in1009.1 mb 0.01 in0.3 mm 0.00 in0.0 mm 0.02 in0.5 mm
09:40 AM 54.0°F12.2°C 52.6°F11.4°C 95% 0.2 mph ENE0.3 kmh ENE 3.0 mph4.8 kmh 29.80 in1009.1 mb 0.01 in0.3 mm 0.00 in0.0 mm 0.02 in0.5 mm
10:00 AM 54.4°F12.4°C 53.0°F11.7°C 95% 1.6 mph SSE2.6 kmh SSE 3.0 mph4.8 kmh 29.80 in1009.1 mb 0.00 in0.0 mm 0.00 in0.0 mm 0.02 in0.5 mm
10:20 AM 55.1°F12.8°C 53.7°F12.1°C 95% 1.0 mph SSE1.6 kmh SSE 3.0 mph4.8 kmh 29.80 in1009.1 mb 0.00 in0.0 mm 0.00 in0.0 mm 0.02 in0.5 mm
10:40 AM 55.8°F13.2°C 54.4°F12.4°C 95% 2.5 mph S4.0 kmh S 6.0 mph9.7 kmh 29.79 in1008.8 mb 0.00 in0.0 mm 0.00 in0.0 mm 0.02 in0.5 mm
11:00 AM 55.1°F12.8°C 53.1°F11.7°C 93% 3.4 mph NW5.5 kmh NW 13.0 mph20.9 kmh 29.80 in1009.1 mb 0.00 in0.0 mm 0.00 in0.0 mm 0.02 in0.5 mm
11:20 AM 55.6°F13.1°C 53.9°F12.2°C 94% 0.3 mph NW0.5 kmh NW 1.0 mph1.6 kmh 29.80 in1009.1 mb 0.00 in0.0 mm 0.00 in0.0 mm 0.02 in0.5 mm
11:40 AM 56.4°F13.6°C 55.0°F12.8°C 95% Calm Calm -- 29.80 in1009.1 mb 0.00 in0.0 mm 0.00 in0.0 mm 0.02 in0.5 mm
12:00 PM 57.2°F14.0°C 55.5°F13.1°C 94% Calm Calm 3.0 mph4.8 kmh 29.80 in1009.1 mb 0.00 in0.0 mm 0.00 in0.0 mm 0.02 in0.5 mm
12:20 PM 57.7°F14.3°C 55.7°F13.2°C 93% Calm Calm -- 29.79 in1008.8 mb 0.02 in0.5 mm 0.06 in1.5 mm 0.03 in0.8 mm
12:40 PM 58.1°F14.5°C 56.4°F13.6°C 94% 0.9 mph W1.4 kmh W 3.0 mph4.8 kmh 29.78 in1008.5 mb 0.02 in0.5 mm 0.00 in0.0 mm 0.04 in1.0 mm
01:00 PM 58.5°F14.7°C 56.5°F13.6°C 93% Calm Calm 2.0 mph3.2 kmh 29.77 in1008.1 mb 0.04 in1.0 mm 0.03 in0.8 mm 0.06 in1.5 mm
01:20 PM 58.3°F14.6°C 56.3°F13.5°C 93% 1.0 mph N1.6 kmh N 5.0 mph8.0 kmh 29.76 in1007.8 mb 0.03 in0.8 mm 0.00 in0.0 mm 0.06 in1.5 mm
01:40 PM 58.0°F14.4°C 56.0°F13.3°C 93% 3.3 mph NE5.3 kmh NE 5.0 mph8.0 kmh 29.75 in1007.5 mb 0.03 in0.8 mm 0.00 in0.0 mm 0.07 in1.8 mm
02:00 PM 57.2°F14.0°C 55.5°F13.1°C 94% 3.6 mph N5.8 kmh N 11.0 mph17.7 kmh 29.75 in1007.5 mb 0.35 in8.9 mm 0.48 in12.2 mm 0.40 in10.2 mm
02:20 PM 57.2°F14.0°C 55.5°F13.1°C 94% 3.0 mph SW4.8 kmh SW 7.0 mph11.3 kmh 29.75 in1007.5 mb 0.60 in15.2 mm 0.75 in19.1 mm 0.66 in16.8 mm
02:40 PM 57.2°F14.0°C 55.5°F13.1°C 94% 2.6 mph SW4.2 kmh SW 5.0 mph8.0 kmh 29.75 in1007.5 mb 0.83 in21.1 mm 0.69 in17.5 mm 0.91 in23.1 mm
03:00 PM 57.4°F14.1°C 55.7°F13.2°C 94% 2.0 mph NNW3.2 kmh NNW 4.0 mph6.4 kmh 29.74 in1007.1 mb 0.55 in14.0 mm 0.00 in0.0 mm 0.98 in24.9 mm
03:20 PM 57.2°F14.0°C 55.5°F13.1°C 94% 2.0 mph NW3.2 kmh NW 4.0 mph6.4 kmh 29.74 in1007.1 mb 0.35 in8.9 mm 0.00 in0.0 mm 1.02 in25.9 mm
03:40 PM 57.2°F14.0°C 55.5°F13.1°C 94% 1.0 mph NW1.6 kmh NW 4.0 mph6.4 kmh 29.74 in1007.1 mb 0.11 in2.8 mm 0.00 in0.0 mm 1.02 in25.9 mm
04:00 PM 57.4°F14.1°C 55.7°F13.2°C 94% 1.0 mph NNW1.6 kmh NNW 3.0 mph4.8 kmh 29.74 in1007.1 mb 0.06 in1.5 mm 0.00 in0.0 mm 1.03 in26.2 mm
04:20 PM 58.0°F14.4°C 56.6°F13.7°C 95% Calm Calm 2.0 mph3.2 kmh 29.73 in1006.8 mb 0.02 in0.5 mm 0.00 in0.0 mm 1.03 in26.2 mm
04:40 PM 58.2°F14.6°C 56.5°F13.6°C 94% Calm Calm 2.0 mph3.2 kmh 29.74 in1007.1 mb 0.01 in0.3 mm 0.00 in0.0 mm 1.03 in26.2 mm
05:00 PM 58.3°F14.6°C 56.6°F13.7°C 94% Calm Calm -- 29.73 in1006.8 mb 0.00 in0.0 mm 0.00 in0.0 mm 1.03 in26.2 mm
05:20 PM 58.4°F14.7°C 56.7°F13.7°C 94% Calm Calm -- 29.73 in1006.8 mb 0.01 in0.3 mm 0.03 in0.8 mm 1.04 in26.4 mm
05:40 PM 58.4°F14.7°C 56.7°F13.7°C 94% Calm Calm -- 29.73 in1006.8 mb 0.02 in0.5 mm 0.03 in0.8 mm 1.06 in26.9 mm
06:00 PM 58.6°F14.8°C 56.9°F13.8°C 94% Calm Calm -- 29.73 in1006.8 mb 0.02 in0.5 mm 0.00 in0.0 mm 1.06 in26.9 mm
06:20 PM 58.8°F14.9°C 57.1°F13.9°C 94% 0.9 mph NW1.4 kmh NW 2.0 mph3.2 kmh 29.74 in1007.1 mb 0.02 in0.5 mm 0.00 in0.0 mm 1.06 in26.9 mm
06:40 PM 58.7°F14.8°C 57.0°F13.9°C 94% 0.2 mph SSW0.3 kmh SSW 2.0 mph3.2 kmh 29.73 in1006.8 mb 0.00 in0.0 mm 0.00 in0.0 mm 1.06 in26.9 mm
07:00 PM 58.7°F14.8°C 57.0°F13.9°C 94% 0.6 mph S1.0 kmh S 1.0 mph1.6 kmh 29.74 in1007.1 mb 0.00 in0.0 mm 0.00 in0.0 mm 1.06 in26.9 mm
07:20 PM 58.7°F14.8°C 57.3°F14.1°C 95% Calm Calm 2.0 mph3.2 kmh 29.75 in1007.5 mb 0.00 in0.0 mm 0.00 in0.0 mm 1.06 in26.9 mm
07:40 PM 58.9°F14.9°C 57.2°F14.0°C 94% 1.6 mph SW2.6 kmh SW 5.0 mph8.0 kmh 29.75 in1007.5 mb 0.00 in0.0 mm 0.00 in0.0 mm 1.06 in26.9 mm
08:00 PM 58.9°F14.9°C 57.2°F14.0°C 94% 3.4 mph SW5.5 kmh SW 8.0 mph12.9 kmh 29.76 in1007.8 mb 0.00 in0.0 mm 0.00 in0.0 mm 1.06 in26.9 mm
08:20 PM 58.9°F14.9°C 57.2°F14.0°C 94% 2.2 mph WSW3.5 kmh WSW 6.0 mph9.7 kmh 29.76 in1007.8 mb 0.00 in0.0 mm 0.00 in0.0 mm 1.06 in26.9 mm
08:40 PM 58.9°F14.9°C 57.2°F14.0°C 94% 2.0 mph SW3.2 kmh SW 4.0 mph6.4 kmh 29.76 in1007.8 mb 0.00 in0.0 mm 0.00 in0.0 mm 1.06 in26.9 mm
09:00 PM 58.9°F14.9°C 57.2°F14.0°C 94% 2.4 mph SW3.9 kmh SW 7.0 mph11.3 kmh 29.76 in1007.8 mb 0.00 in0.0 mm 0.00 in0.0 mm 1.06 in26.9 mm
09:20 PM 58.9°F14.9°C 57.2°F14.0°C 94% 3.0 mph SW4.8 kmh SW 8.0 mph12.9 kmh 29.76 in1007.8 mb 0.00 in0.0 mm 0.00 in0.0 mm 1.06 in26.9 mm
09:40 PM 58.8°F14.9°C 57.1°F13.9°C 94% 3.9 mph SW6.3 kmh SW 8.0 mph12.9 kmh 29.77 in1008.1 mb 0.00 in0.0 mm 0.00 in0.0 mm 1.06 in26.9 mm
10:00 PM 58.7°F14.8°C 57.0°F13.9°C 94% 3.0 mph SW4.8 kmh SW 7.0 mph11.3 kmh 29.76 in1007.8 mb 0.00 in0.0 mm 0.00 in0.0 mm 1.06 in26.9 mm
10:20 PM 58.6°F14.8°C 56.9°F13.8°C 94% 3.0 mph SW4.8 kmh SW 5.0 mph8.0 kmh 29.76 in1007.8 mb 0.00 in0.0 mm 0.00 in0.0 mm 1.06 in26.9 mm
10:40 PM 58.5°F14.7°C 56.8°F13.8°C 94% 3.1 mph SW5.0 kmh SW 5.0 mph8.0 kmh 29.76 in1007.8 mb 0.00 in0.0 mm 0.00 in0.0 mm 1.06 in26.9 mm
11:00 PM 58.2°F14.6°C 56.5°F13.6°C 94% 2.0 mph SW3.2 kmh SW 4.0 mph6.4 kmh 29.76 in1007.8 mb 0.00 in0.0 mm 0.00 in0.0 mm 1.06 in26.9 mm
11:20 PM 58.0°F14.4°C 56.3°F13.5°C 94% 2.0 mph SW3.2 kmh SW 5.0 mph8.0 kmh 29.75 in1007.5 mb 0.00 in0.0 mm 0.00 in0.0 mm 1.06 in26.9 mm
11:40 PM 57.9°F14.4°C 56.2°F13.4°C 94% 3.0 mph SW4.8 kmh SW 6.0 mph9.7 kmh 29.75 in1007.5 mb 0.00 in0.0 mm 0.00 in0.0 mm 1.06 in26.9 mm